sensor_id;sensor_type;location;lat;lon;timestamp;pressure;altitude;pressure_sealevel;temperature;humidity
64967;BME280;51710;38.732;-121.358;2023-03-03T00:01:15;101429.19;;;15.32;41.45
64967;BME280;51710;38.732;-121.358;2023-03-03T00:03:45;101419.97;;;15.27;40.82
64967;BME280;51710;38.732;-121.358;2023-03-03T00:06:13;101420.13;;;15.17;40.94
64967;BME280;51710;38.732;-121.358;2023-03-03T00:08:40;101420.16;;;15.09;41.22
64967;BME280;51710;38.732;-121.358;2023-03-03T00:11:06;101419.47;;;15.07;41.64
64967;BME280;51710;38.732;-121.358;2023-03-03T00:13:46;101417.97;;;15.05;41.42
64967;BME280;51710;38.732;-121.358;2023-03-03T00:18:44;101417.31;;;15.03;42.23
64967;BME280;51710;38.732;-121.358;2023-03-03T00:21:25;101413.13;;;15.00;41.13
64967;BME280;51710;38.732;-121.358;2023-03-03T00:26:49;101416.31;;;14.88;41.54
64967;BME280;51710;38.732;-121.358;2023-03-03T00:29:30;101415.13;;;14.82;41.95
64967;BME280;51710;38.732;-121.358;2023-03-03T00:32:24;101411.47;;;14.83;41.81
64967;BME280;51710;38.732;-121.358;2023-03-03T00:34:52;101411.81;;;14.80;41.87
64967;BME280;51710;38.732;-121.358;2023-03-03T00:39:45;101409.78;;;14.74;41.45
64967;BME280;51710;38.732;-121.358;2023-03-03T00:42:16;101410.28;;;14.70;41.25
64967;BME280;51710;38.732;-121.358;2023-03-03T00:44:45;101399.38;;;14.63;41.13
64967;BME280;51710;38.732;-121.358;2023-03-03T00:47:23;101406.22;;;14.57;41.36
64967;BME280;51710;38.732;-121.358;2023-03-03T00:49:52;101401.22;;;14.54;41.06
64967;BME280;51710;38.732;-121.358;2023-03-03T00:52:19;101408.06;;;14.49;40.49
64967;BME280;51710;38.732;-121.358;2023-03-03T00:54:46;101405.91;;;14.44;40.56
64967;BME280;51710;38.732;-121.358;2023-03-03T00:57:12;101403.72;;;14.40;40.05
64967;BME280;51710;38.732;-121.358;2023-03-03T00:59:39;101397.34;;;14.33;40.59
64967;BME280;51710;38.732;-121.358;2023-03-03T01:02:05;101402.50;;;14.26;40.97
64967;BME280;51710;38.732;-121.358;2023-03-03T01:04:32;101405.13;;;14.18;40.80
64967;BME280;51710;38.732;-121.358;2023-03-03T01:06:58;101395.91;;;14.13;40.96
64967;BME280;51710;38.732;-121.358;2023-03-03T01:09:24;101399.59;;;14.12;41.32
64967;BME280;51710;38.732;-121.358;2023-03-03T01:11:50;101394.41;;;14.10;41.11
64967;BME280;51710;38.732;-121.358;2023-03-03T01:14:17;101403.09;;;14.04;40.91
64967;BME280;51710;38.732;-121.358;2023-03-03T01:16:43;101412.78;;;13.97;40.82
64967;BME280;51710;38.732;-121.358;2023-03-03T01:19:10;101420.28;;;13.94;41.29
64967;BME280;51710;38.732;-121.358;2023-03-03T01:21:36;101418.94;;;13.90;41.29
64967;BME280;51710;38.732;-121.358;2023-03-03T01:24:02;101418.56;;;13.85;41.59
64967;BME280;51710;38.732;-121.358;2023-03-03T01:26:28;101412.69;;;13.81;41.71
64967;BME280;51710;38.732;-121.358;2023-03-03T01:28:56;101413.19;;;13.77;41.80
64967;BME280;51710;38.732;-121.358;2023-03-03T01:31:22;101418.38;;;13.70;41.79
64967;BME280;51710;38.732;-121.358;2023-03-03T01:33:48;101419.16;;;13.63;41.80
64967;BME280;51710;38.732;-121.358;2023-03-03T01:36:15;101415.59;;;13.54;41.68
64967;BME280;51710;38.732;-121.358;2023-03-03T01:38:41;101419.06;;;13.46;41.81
64967;BME280;51710;38.732;-121.358;2023-03-03T01:41:08;101424.53;;;13.37;41.83
64967;BME280;51710;38.732;-121.358;2023-03-03T01:43:43;101431.34;;;13.31;41.84
64967;BME280;51710;38.732;-121.358;2023-03-03T01:49:02;101438.78;;;13.20;42.37
64967;BME280;51710;38.732;-121.358;2023-03-03T01:51:42;101443.91;;;13.13;42.42
64967;BME280;51710;38.732;-121.358;2023-03-03T01:54:15;101458.06;;;13.06;42.51
64967;BME280;51710;38.732;-121.358;2023-03-03T01:56:43;101463.16;;;12.99;43.01
64967;BME280;51710;38.732;-121.358;2023-03-03T01:59:20;101479.84;;;12.93;42.92
64967;BME280;51710;38.732;-121.358;2023-03-03T02:01:48;101478.75;;;12.86;43.05
64967;BME280;51710;38.732;-121.358;2023-03-03T02:04:16;101475.41;;;12.84;43.19
64967;BME280;51710;38.732;-121.358;2023-03-03T02:06:51;101470.50;;;12.80;43.29
64967;BME280;51710;38.732;-121.358;2023-03-03T02:09:40;101458.91;;;12.71;43.58
64967;BME280;51710;38.732;-121.358;2023-03-03T02:12:12;101454.19;;;12.65;43.34
64967;BME280;51710;38.732;-121.358;2023-03-03T02:14:38;101453.09;;;12.58;43.83
64967;BME280;51710;38.732;-121.358;2023-03-03T02:17:05;101462.56;;;12.53;44.17
64967;BME280;51710;38.732;-121.358;2023-03-03T02:28:26;101513.47;;;12.24;45.02
64967;BME280;51710;38.732;-121.358;2023-03-03T02:30:57;101514.38;;;12.15;45.25
64967;BME280;51710;38.732;-121.358;2023-03-03T02:33:24;101504.28;;;12.09;45.97
64967;BME280;51710;38.732;-121.358;2023-03-03T02:35:51;101509.38;;;12.02;45.82
64967;BME280;51710;38.732;-121.358;2023-03-03T02:43:44;101494.53;;;11.90;46.09
64967;BME280;51710;38.732;-121.358;2023-03-03T02:46:14;101499.34;;;11.87;46.70
64967;BME280;51710;38.732;-121.358;2023-03-03T02:48:40;101508.59;;;11.83;46.48
64967;BME280;51710;38.732;-121.358;2023-03-03T02:51:07;101497.38;;;11.79;46.67
64967;BME280;51710;38.732;-121.358;2023-03-03T02:53:33;101493.47;;;11.74;46.52
64967;BME280;51710;38.732;-121.358;2023-03-03T02:55:59;101495.88;;;11.67;46.60
64967;BME280;51710;38.732;-121.358;2023-03-03T02:58:26;101492.94;;;11.61;46.97
64967;BME280;51710;38.732;-121.358;2023-03-03T03:00:52;101493.50;;;11.55;47.37
64967;BME280;51710;38.732;-121.358;2023-03-03T03:03:20;101501.94;;;11.50;47.95
64967;BME280;51710;38.732;-121.358;2023-03-03T03:05:46;101500.53;;;11.46;47.59
64967;BME280;51710;38.732;-121.358;2023-03-03T03:08:12;101504.63;;;11.41;47.88
64967;BME280;51710;38.732;-121.358;2023-03-03T03:10:39;101506.16;;;11.33;47.91
64967;BME280;51710;38.732;-121.358;2023-03-03T03:13:06;101495.69;;;11.22;48.03
64967;BME280;51710;38.732;-121.358;2023-03-03T03:15:34;101499.19;;;11.13;48.59
64967;BME280;51710;38.732;-121.358;2023-03-03T03:18:00;101491.75;;;11.07;48.43
64967;BME280;51710;38.732;-121.358;2023-03-03T03:20:27;101505.66;;;11.01;48.39
64967;BME280;51710;38.732;-121.358;2023-03-03T03:22:53;101499.91;;;10.96;49.00
64967;BME280;51710;38.732;-121.358;2023-03-03T03:25:19;101490.50;;;10.92;49.29
64967;BME280;51710;38.732;-121.358;2023-03-03T03:27:45;101486.72;;;10.85;48.70
64967;BME280;51710;38.732;-121.358;2023-03-03T03:30:12;101491.91;;;10.77;49.38
64967;BME280;51710;38.732;-121.358;2023-03-03T03:32:39;101485.72;;;10.67;49.63
64967;BME280;51710;38.732;-121.358;2023-03-03T03:35:06;101483.44;;;10.53;49.39
64967;BME280;51710;38.732;-121.358;2023-03-03T03:37:32;101479.81;;;10.45;49.91
64967;BME280;51710;38.732;-121.358;2023-03-03T03:39:58;101478.66;;;10.38;50.30
64967;BME280;51710;38.732;-121.358;2023-03-03T03:42:24;101467.44;;;10.34;49.66
64967;BME280;51710;38.732;-121.358;2023-03-03T03:44:51;101479.09;;;10.33;49.85
64967;BME280;51710;38.732;-121.358;2023-03-03T03:47:17;101486.09;;;10.34;50.15
64967;BME280;51710;38.732;-121.358;2023-03-03T03:49:43;101499.97;;;10.38;49.96
64967;BME280;51710;38.732;-121.358;2023-03-03T03:52:09;101489.16;;;10.39;50.07
64967;BME280;51710;38.732;-121.358;2023-03-03T03:54:35;101503.19;;;10.41;50.24
64967;BME280;51710;38.732;-121.358;2023-03-03T03:57:02;101487.06;;;10.43;49.96
64967;BME280;51710;38.732;-121.358;2023-03-03T03:59:28;101480.94;;;10.42;50.42
64967;BME280;51710;38.732;-121.358;2023-03-03T04:01:54;101469.44;;;10.42;50.18
64967;BME280;51710;38.732;-121.358;2023-03-03T04:04:20;101473.91;;;10.41;50.36
64967;BME280;51710;38.732;-121.358;2023-03-03T04:06:47;101479.38;;;10.40;50.34
64967;BME280;51710;38.732;-121.358;2023-03-03T04:09:14;101471.66;;;10.37;50.98
64967;BME280;51710;38.732;-121.358;2023-03-03T04:11:40;101470.81;;;10.36;51.24
64967;BME280;51710;38.732;-121.358;2023-03-03T04:14:06;101474.19;;;10.38;51.24
64967;BME280;51710;38.732;-121.358;2023-03-03T04:16:33;101464.53;;;10.37;51.39
64967;BME280;51710;38.732;-121.358;2023-03-03T04:18:59;101465.50;;;10.36;51.51
64967;BME280;51710;38.732;-121.358;2023-03-03T04:21:25;101465.63;;;10.35;52.00
64967;BME280;51710;38.732;-121.358;2023-03-03T04:23:52;101467.44;;;10.34;52.10
64967;BME280;51710;38.732;-121.358;2023-03-03T04:26:18;101467.44;;;10.34;52.74
64967;BME280;51710;38.732;-121.358;2023-03-03T04:28:45;101464.06;;;10.32;52.84
64967;BME280;51710;38.732;-121.358;2023-03-03T04:31:11;101469.41;;;10.32;52.86
64967;BME280;51710;38.732;-121.358;2023-03-03T04:33:37;101479.38;;;10.30;53.25
64967;BME280;51710;38.732;-121.358;2023-03-03T04:36:04;101485.78;;;10.28;53.56
64967;BME280;51710;38.732;-121.358;2023-03-03T04:38:31;101485.09;;;10.26;53.75
64967;BME280;51710;38.732;-121.358;2023-03-03T04:40:57;101498.53;;;10.24;53.71
64967;BME280;51710;38.732;-121.358;2023-03-03T04:43:24;101501.34;;;10.23;54.34
64967;BME280;51710;38.732;-121.358;2023-03-03T04:45:50;101503.00;;;10.23;54.14
64967;BME280;51710;38.732;-121.358;2023-03-03T04:48:16;101505.09;;;10.20;54.31
64967;BME280;51710;38.732;-121.358;2023-03-03T04:50:43;101519.25;;;10.20;54.57
64967;BME280;51710;38.732;-121.358;2023-03-03T04:53:09;101526.38;;;10.20;54.47
64967;BME280;51710;38.732;-121.358;2023-03-03T04:55:36;101522.06;;;10.19;54.98
64967;BME280;51710;38.732;-121.358;2023-03-03T04:58:03;101526.38;;;10.20;54.83
64967;BME280;51710;38.732;-121.358;2023-03-03T05:00:30;101528.22;;;10.19;55.28
64967;BME280;51710;38.732;-121.358;2023-03-03T05:02:56;101521.22;;;10.18;55.42
64967;BME280;51710;38.732;-121.358;2023-03-03T05:05:23;101528.47;;;10.16;55.65
64967;BME280;51710;38.732;-121.358;2023-03-03T05:07:49;101539.41;;;10.13;55.53
64967;BME280;51710;38.732;-121.358;2023-03-03T05:10:15;101533.50;;;10.10;55.84
64967;BME280;51710;38.732;-121.358;2023-03-03T05:12:42;101525.78;;;10.07;55.84
64967;BME280;51710;38.732;-121.358;2023-03-03T05:15:09;101517.34;;;10.02;56.13
64967;BME280;51710;38.732;-121.358;2023-03-03T05:17:36;101519.56;;;9.97;56.05
64967;BME280;51710;38.732;-121.358;2023-03-03T05:20:04;101519.13;;;9.92;56.41
64967;BME280;51710;38.732;-121.358;2023-03-03T05:22:33;101518.66;;;9.87;56.44
64967;BME280;51710;38.732;-121.358;2023-03-03T05:24:59;101527.19;;;9.81;56.52
64967;BME280;51710;38.732;-121.358;2023-03-03T05:27:25;101520.44;;;9.77;56.91
64967;BME280;51710;38.732;-121.358;2023-03-03T05:29:52;101526.03;;;9.74;56.78
64967;BME280;51710;38.732;-121.358;2023-03-03T05:32:18;101529.91;;;9.70;56.83
64967;BME280;51710;38.732;-121.358;2023-03-03T05:34:44;101541.69;;;9.67;57.30
64967;BME280;51710;38.732;-121.358;2023-03-03T05:37:10;101537.47;;;9.65;57.30
64967;BME280;51710;38.732;-121.358;2023-03-03T05:39:37;101534.06;;;9.63;57.20
64967;BME280;51710;38.732;-121.358;2023-03-03T05:42:03;101537.84;;;9.60;57.70
64967;BME280;51710;38.732;-121.358;2023-03-03T05:44:30;101536.28;;;9.58;57.49
64967;BME280;51710;38.732;-121.358;2023-03-03T05:46:56;101535.44;;;9.57;57.62
64967;BME280;51710;38.732;-121.358;2023-03-03T05:49:25;101532.91;;;9.56;57.69
64967;BME280;51710;38.732;-121.358;2023-03-03T05:51:51;101534.16;;;9.52;57.73
64967;BME280;51710;38.732;-121.358;2023-03-03T05:54:17;101531.75;;;9.49;57.61
64967;BME280;51710;38.732;-121.358;2023-03-03T05:56:44;101537.34;;;9.46;57.65
64967;BME280;51710;38.732;-121.358;2023-03-03T05:59:10;101540.25;;;9.43;57.89
64967;BME280;51710;38.732;-121.358;2023-03-03T06:01:36;101525.53;;;9.39;57.93
64967;BME280;51710;38.732;-121.358;2023-03-03T06:04:02;101530.13;;;9.37;58.14
64967;BME280;51710;38.732;-121.358;2023-03-03T06:06:29;101530.53;;;9.32;58.10
64967;BME280;51710;38.732;-121.358;2023-03-03T06:08:55;101523.78;;;9.28;58.41
64967;BME280;51710;38.732;-121.358;2023-03-03T06:11:21;101517.88;;;9.25;58.53
64967;BME280;51710;38.732;-121.358;2023-03-03T06:13:48;101519.81;;;9.23;58.58
64967;BME280;51710;38.732;-121.358;2023-03-03T06:16:14;101527.06;;;9.21;58.93
64967;BME280;51710;38.732;-121.358;2023-03-03T06:18:40;101513.78;;;9.21;58.82
64967;BME280;51710;38.732;-121.358;2023-03-03T06:21:07;101509.59;;;9.18;59.05
64967;BME280;51710;38.732;-121.358;2023-03-03T06:23:33;101512.13;;;9.20;58.99
64967;BME280;51710;38.732;-121.358;2023-03-03T06:25:59;101525.66;;;9.17;58.73
64967;BME280;51710;38.732;-121.358;2023-03-03T06:28:25;101537.25;;;9.16;59.30
64967;BME280;51710;38.732;-121.358;2023-03-03T06:30:53;101529.28;;;9.16;59.16
64967;BME280;51710;38.732;-121.358;2023-03-03T06:33:20;101524.22;;;9.13;59.15
64967;BME280;51710;38.732;-121.358;2023-03-03T06:35:51;101521.69;;;9.11;59.14
64967;BME280;51710;38.732;-121.358;2023-03-03T06:38:17;101505.91;;;9.09;59.40
64967;BME280;51710;38.732;-121.358;2023-03-03T06:40:44;101498.88;;;9.08;59.38
64967;BME280;51710;38.732;-121.358;2023-03-03T06:43:11;101486.72;;;9.06;59.37
64967;BME280;51710;38.732;-121.358;2023-03-03T06:45:38;101486.00;;;9.04;59.79
64967;BME280;51710;38.732;-121.358;2023-03-03T06:48:04;101490.00;;;8.98;59.62
64967;BME280;51710;38.732;-121.358;2023-03-03T06:50:30;101484.94;;;8.95;59.58
64967;BME280;51710;38.732;-121.358;2023-03-03T06:53:15;101481.56;;;8.93;60.03
64967;BME280;51710;38.732;-121.358;2023-03-03T06:55:41;101492.34;;;8.92;60.18
64967;BME280;51710;38.732;-121.358;2023-03-03T06:58:22;101501.16;;;8.92;60.01
64967;BME280;51710;38.732;-121.358;2023-03-03T07:00:59;101505.47;;;8.93;60.36
64967;BME280;51710;38.732;-121.358;2023-03-03T07:03:32;101509.81;;;8.94;60.48
64967;BME280;51710;38.732;-121.358;2023-03-03T07:05:59;101515.97;;;8.95;60.30
64967;BME280;51710;38.732;-121.358;2023-03-03T07:08:29;101524.06;;;8.93;60.40
64967;BME280;51710;38.732;-121.358;2023-03-03T07:11:00;101531.31;;;8.91;60.44
64967;BME280;51710;38.732;-121.358;2023-03-03T07:13:31;101527.22;;;8.87;60.19
64967;BME280;51710;38.732;-121.358;2023-03-03T07:16:02;101527.03;;;8.79;60.70
64967;BME280;51710;38.732;-121.358;2023-03-03T07:18:49;101534.53;;;8.74;61.04
64967;BME280;51710;38.732;-121.358;2023-03-03T07:21:49;101536.59;;;8.71;60.95
64967;BME280;51710;38.732;-121.358;2023-03-03T07:24:26;101538.19;;;8.62;61.10
64967;BME280;51710;38.732;-121.358;2023-03-03T07:27:05;101540.50;;;8.56;61.40
64967;BME280;51710;38.732;-121.358;2023-03-03T07:29:36;101539.41;;;8.47;61.12
64967;BME280;51710;38.732;-121.358;2023-03-03T07:32:26;101550.06;;;8.36;61.77
64967;BME280;51710;38.732;-121.358;2023-03-03T07:34:55;101546.16;;;8.18;61.93
64967;BME280;51710;38.732;-121.358;2023-03-03T07:37:34;101550.50;;;7.97;62.77
64967;BME280;51710;38.732;-121.358;2023-03-03T07:43:00;101565.84;;;7.82;62.76
64967;BME280;51710;38.732;-121.358;2023-03-03T07:45:30;101550.63;;;7.73;63.31
64967;BME280;51710;38.732;-121.358;2023-03-03T07:48:12;101545.06;;;7.65;63.71
64967;BME280;51710;38.732;-121.358;2023-03-03T07:50:41;101554.34;;;7.60;63.58
64967;BME280;51710;38.732;-121.358;2023-03-03T07:53:18;101553.34;;;7.50;63.99
64967;BME280;51710;38.732;-121.358;2023-03-03T07:55:46;101554.28;;;7.38;64.20
64967;BME280;51710;38.732;-121.358;2023-03-03T07:58:14;101545.72;;;7.23;64.52
64967;BME280;51710;38.732;-121.358;2023-03-03T08:03:43;101548.66;;;6.84;65.70
64967;BME280;51710;38.732;-121.358;2023-03-03T08:06:29;101537.94;;;6.74;65.62
64967;BME280;51710;38.732;-121.358;2023-03-03T08:11:54;101543.16;;;6.63;66.80
64967;BME280;51710;38.732;-121.358;2023-03-03T08:14:30;101554.69;;;6.62;66.12
64967;BME280;51710;38.732;-121.358;2023-03-03T08:17:00;101553.63;;;6.65;66.66
64967;BME280;51710;38.732;-121.358;2023-03-03T08:19:27;101547.16;;;6.69;66.52
64967;BME280;51710;38.732;-121.358;2023-03-03T08:22:19;101552.44;;;6.69;67.57
64967;BME280;51710;38.732;-121.358;2023-03-03T08:24:50;101556.59;;;6.60;67.02
64967;BME280;51710;38.732;-121.358;2023-03-03T08:27:16;101552.22;;;6.48;67.24
64967;BME280;51710;38.732;-121.358;2023-03-03T08:29:42;101556.25;;;6.41;67.79
64967;BME280;51710;38.732;-121.358;2023-03-03T08:32:08;101561.09;;;6.35;67.63
64967;BME280;51710;38.732;-121.358;2023-03-03T08:34:34;101571.06;;;6.31;68.23
64967;BME280;51710;38.732;-121.358;2023-03-03T08:37:01;101573.00;;;6.29;68.29
64967;BME280;51710;38.732;-121.358;2023-03-03T08:39:28;101571.50;;;6.25;68.54
64967;BME280;51710;38.732;-121.358;2023-03-03T08:41:54;101568.78;;;6.14;68.05
64967;BME280;51710;38.732;-121.358;2023-03-03T08:44:20;101577.03;;;6.10;68.59
64967;BME280;51710;38.732;-121.358;2023-03-03T08:46:47;101571.13;;;6.06;68.47
64967;BME280;51710;38.732;-121.358;2023-03-03T08:49:14;101560.56;;;6.06;68.86
64967;BME280;51710;38.732;-121.358;2023-03-03T08:51:41;101562.00;;;6.10;68.91
64967;BME280;51710;38.732;-121.358;2023-03-03T08:54:08;101569.94;;;6.10;69.09
64967;BME280;51710;38.732;-121.358;2023-03-03T08:56:34;101570.38;;;6.04;69.04
64967;BME280;51710;38.732;-121.358;2023-03-03T08:59:01;101566.06;;;6.03;69.10
64967;BME280;51710;38.732;-121.358;2023-03-03T09:01:27;101562.44;;;6.04;69.24
64967;BME280;51710;38.732;-121.358;2023-03-03T09:03:54;101565.22;;;6.03;68.90
64967;BME280;51710;38.732;-121.358;2023-03-03T09:06:20;101570.72;;;6.00;69.32
64967;BME280;51710;38.732;-121.358;2023-03-03T09:08:46;101558.88;;;5.93;69.18
64967;BME280;51710;38.732;-121.358;2023-03-03T09:11:13;101555.78;;;5.86;69.33
64967;BME280;51710;38.732;-121.358;2023-03-03T09:13:39;101554.97;;;5.86;69.76
64967;BME280;51710;38.732;-121.358;2023-03-03T09:16:15;101559.91;;;5.90;69.67
64967;BME280;51710;38.732;-121.358;2023-03-03T09:18:43;101554.13;;;5.98;70.11
64967;BME280;51710;38.732;-121.358;2023-03-03T09:21:21;101560.78;;;6.03;70.03
64967;BME280;51710;38.732;-121.358;2023-03-03T09:23:53;101571.63;;;6.11;69.90
64967;BME280;51710;38.732;-121.358;2023-03-03T09:26:25;101561.59;;;6.16;69.85
64967;BME280;51710;38.732;-121.358;2023-03-03T09:31:52;101551.28;;;6.24;70.18
64967;BME280;51710;38.732;-121.358;2023-03-03T09:36:55;101532.13;;;6.33;70.17
64967;BME280;51710;38.732;-121.358;2023-03-03T09:39:24;101530.97;;;6.37;70.26
64967;BME280;51710;38.732;-121.358;2023-03-03T09:50:53;101496.56;;;6.61;69.91
64967;BME280;51710;38.732;-121.358;2023-03-03T09:53:34;101495.41;;;6.65;70.55
64967;BME280;51710;38.732;-121.358;2023-03-03T10:04:34;101510.06;;;6.81;70.65
64967;BME280;51710;38.732;-121.358;2023-03-03T10:10:05;101501.03;;;6.84;70.09
64967;BME280;51710;38.732;-121.358;2023-03-03T10:13:19;101506.06;;;6.87;70.33
64967;BME280;51710;38.732;-121.358;2023-03-03T10:15:53;101514.75;;;6.89;70.04
64967;BME280;51710;38.732;-121.358;2023-03-03T10:18:46;101513.06;;;6.88;70.09
64967;BME280;51710;38.732;-121.358;2023-03-03T10:21:24;101508.50;;;6.90;70.56
64967;BME280;51710;38.732;-121.358;2023-03-03T10:24:23;101508.41;;;6.92;69.74
64967;BME280;51710;38.732;-121.358;2023-03-03T10:37:44;101494.88;;;6.83;70.61
64967;BME280;51710;38.732;-121.358;2023-03-03T10:43:15;101505.97;;;6.65;70.16
64967;BME280;51710;38.732;-121.358;2023-03-03T10:57:58;101492.97;;;6.38;71.19
64967;BME280;51710;38.732;-121.358;2023-03-03T11:00:40;101488.19;;;6.43;71.48
64967;BME280;51710;38.732;-121.358;2023-03-03T11:06:11;101483.19;;;6.51;71.00
64967;BME280;51710;38.732;-121.358;2023-03-03T11:14:38;101457.13;;;6.58;71.29
64967;BME280;51710;38.732;-121.358;2023-03-03T11:20:08;101460.94;;;6.54;70.93
64967;BME280;51710;38.732;-121.358;2023-03-03T11:22:50;101465.63;;;6.50;70.89
64967;BME280;51710;38.732;-121.358;2023-03-03T11:25:29;101464.09;;;6.35;70.94
64967;BME280;51710;38.732;-121.358;2023-03-03T11:30:49;101480.00;;;5.99;71.58
64967;BME280;51710;38.732;-121.358;2023-03-03T11:41:38;101483.72;;;5.34;72.48
64967;BME280;51710;38.732;-121.358;2023-03-03T11:46:43;101479.91;;;5.38;73.15
64967;BME280;51710;38.732;-121.358;2023-03-03T11:49:36;101485.50;;;5.46;73.42
64967;BME280;51710;38.732;-121.358;2023-03-03T11:55:14;101488.66;;;5.51;73.65
64967;BME280;51710;38.732;-121.358;2023-03-03T11:57:53;101497.56;;;5.50;73.63
64967;BME280;51710;38.732;-121.358;2023-03-03T12:01:20;101487.72;;;5.52;73.88
64967;BME280;51710;38.732;-121.358;2023-03-03T12:07:08;101473.66;;;5.64;73.68
64967;BME280;51710;38.732;-121.358;2023-03-03T12:15:40;101482.56;;;5.63;72.89
64967;BME280;51710;38.732;-121.358;2023-03-03T12:24:20;101483.38;;;5.13;73.61
64967;BME280;51710;38.732;-121.358;2023-03-03T12:26:58;101478.44;;;5.09;73.80
64967;BME280;51710;38.732;-121.358;2023-03-03T12:29:51;101477.16;;;5.02;74.29
64967;BME280;51710;38.732;-121.358;2023-03-03T12:32:47;101476.16;;;4.90;75.11
64967;BME280;51710;38.732;-121.358;2023-03-03T12:41:06;101489.03;;;4.82;75.92
64967;BME280;51710;38.732;-121.358;2023-03-03T12:44:13;101485.88;;;4.90;76.32
64967;BME280;51710;38.732;-121.358;2023-03-03T12:46:44;101483.56;;;4.98;76.78
64967;BME280;51710;38.732;-121.358;2023-03-03T12:49:11;101489.91;;;5.08;76.30
64967;BME280;51710;38.732;-121.358;2023-03-03T12:54:31;101491.31;;;5.26;76.39
64967;BME280;51710;38.732;-121.358;2023-03-03T13:02:53;101477.16;;;5.52;76.20
64967;BME280;51710;38.732;-121.358;2023-03-03T13:05:47;101474.09;;;5.58;76.08
64967;BME280;51710;38.732;-121.358;2023-03-03T13:08:29;101484.47;;;5.61;75.81
64967;BME280;51710;38.732;-121.358;2023-03-03T13:25:01;101459.81;;;5.73;75.85
64967;BME280;51710;38.732;-121.358;2023-03-03T13:27:39;101460.56;;;5.75;76.12
64967;BME280;51710;38.732;-121.358;2023-03-03T13:30:21;101449.03;;;5.76;76.04
64967;BME280;51710;38.732;-121.358;2023-03-03T13:36:09;101438.03;;;5.82;76.03
64967;BME280;51710;38.732;-121.358;2023-03-03T13:38:49;101442.38;;;5.83;75.72
64967;BME280;51710;38.732;-121.358;2023-03-03T13:41:30;101434.22;;;5.86;76.00
64967;BME280;51710;38.732;-121.358;2023-03-03T13:44:11;101427.91;;;5.89;75.84
64967;BME280;51710;38.732;-121.358;2023-03-03T13:49:22;101432.84;;;5.93;76.27
64967;BME280;51710;38.732;-121.358;2023-03-03T13:52:12;101427.56;;;5.93;76.09
64967;BME280;51710;38.732;-121.358;2023-03-03T13:55:05;101425.66;;;5.95;76.00
64967;BME280;51710;38.732;-121.358;2023-03-03T13:57:51;101418.47;;;5.97;75.65
64967;BME280;51710;38.732;-121.358;2023-03-03T14:00:26;101421.84;;;5.99;75.84
64967;BME280;51710;38.732;-121.358;2023-03-03T14:05:50;101418.97;;;6.02;75.45
64967;BME280;51710;38.732;-121.358;2023-03-03T14:11:42;101435.06;;;5.99;75.58
64967;BME280;51710;38.732;-121.358;2023-03-03T14:16:58;101450.41;;;5.69;75.57
64967;BME280;51710;38.732;-121.358;2023-03-03T14:19:47;101451.59;;;5.52;75.82
64967;BME280;51710;38.732;-121.358;2023-03-03T14:22:43;101458.03;;;5.36;76.22
64967;BME280;51710;38.732;-121.358;2023-03-03T14:25:13;101461.31;;;5.27;76.75
64967;BME280;51710;38.732;-121.358;2023-03-03T14:27:53;101467.97;;;5.20;76.70
64967;BME280;51710;38.732;-121.358;2023-03-03T14:38:13;101466.16;;;5.08;77.04
64967;BME280;51710;38.732;-121.358;2023-03-03T14:40:41;101470.63;;;5.07;77.58
64967;BME280;51710;38.732;-121.358;2023-03-03T14:43:38;101469.66;;;5.08;77.54
64967;BME280;51710;38.732;-121.358;2023-03-03T14:48:51;101476.94;;;5.05;77.15
64967;BME280;51710;38.732;-121.358;2023-03-03T14:51:43;101472.38;;;4.94;77.44
64967;BME280;51710;38.732;-121.358;2023-03-03T14:54:34;101488.81;;;4.85;77.75
64967;BME280;51710;38.732;-121.358;2023-03-03T14:59:38;101493.66;;;4.79;78.46
64967;BME280;51710;38.732;-121.358;2023-03-03T15:04:45;101506.63;;;4.82;78.62
64967;BME280;51710;38.732;-121.358;2023-03-03T15:07:35;101509.50;;;4.79;78.98
64967;BME280;51710;38.732;-121.358;2023-03-03T15:10:03;101510.25;;;4.81;78.99
64967;BME280;51710;38.732;-121.358;2023-03-03T15:15:12;101516.72;;;5.02;79.52
64967;BME280;51710;38.732;-121.358;2023-03-03T15:21:01;101524.34;;;5.19;79.52
64967;BME280;51710;38.732;-121.358;2023-03-03T15:23:43;101528.38;;;5.24;79.31
64967;BME280;51710;38.732;-121.358;2023-03-03T15:38:30;101540.03;;;5.59;79.28
64967;BME280;51710;38.732;-121.358;2023-03-03T15:46:37;101541.00;;;5.96;78.89
64967;BME280;51710;38.732;-121.358;2023-03-03T16:02:57;101558.28;;;6.61;79.00
64967;BME280;51710;38.732;-121.358;2023-03-03T16:06:13;101555.03;;;6.81;78.80
64967;BME280;51710;38.732;-121.358;2023-03-03T16:08:29;101554.41;;;7.02;78.90
64967;BME280;51710;38.732;-121.358;2023-03-03T16:16:27;101557.28;;;7.33;77.58
64967;BME280;51710;38.732;-121.358;2023-03-03T16:21:52;101564.69;;;7.52;76.99
64967;BME280;51710;38.732;-121.358;2023-03-03T16:24:38;101564.72;;;7.63;76.80
64967;BME280;51710;38.732;-121.358;2023-03-03T16:27:17;101562.09;;;7.74;76.49
64967;BME280;51710;38.732;-121.358;2023-03-03T16:30:22;101568.97;;;7.87;75.61
64967;BME280;51710;38.732;-121.358;2023-03-03T16:36:12;101574.41;;;8.19;76.15
64967;BME280;51710;38.732;-121.358;2023-03-03T16:39:02;101578.53;;;8.34;76.02
64967;BME280;51710;38.732;-121.358;2023-03-03T16:52:42;101594.19;;;8.59;74.13
64967;BME280;51710;38.732;-121.358;2023-03-03T16:55:20;101600.31;;;8.60;74.62
64967;BME280;51710;38.732;-121.358;2023-03-03T17:00:34;101598.03;;;8.66;74.80